sensor_id;sensor_type;location;lat;lon;timestamp;pressure;altitude;pressure_sealevel;temperature;humidity
38880;BME280;25887;30.194;-97.880;2023-03-01T00:01:24;97678.00;;;29.69;33.83
38880;BME280;25887;30.194;-97.880;2023-03-01T00:04:11;97673.84;;;29.67;34.42
38880;BME280;25887;30.194;-97.880;2023-03-01T00:06:37;97678.41;;;29.65;34.13
38880;BME280;25887;30.194;-97.880;2023-03-01T00:09:21;97685.81;;;29.61;34.32
38880;BME280;25887;30.194;-97.880;2023-03-01T00:11:47;97687.75;;;29.59;34.06
38880;BME280;25887;30.194;-97.880;2023-03-01T00:17:15;97691.91;;;29.52;34.63
38880;BME280;25887;30.194;-97.880;2023-03-01T00:19:42;97696.59;;;29.49;34.32
38880;BME280;25887;30.194;-97.880;2023-03-01T00:22:08;97690.75;;;29.45;34.35
38880;BME280;25887;30.194;-97.880;2023-03-01T00:24:33;97689.47;;;29.39;34.47
38880;BME280;25887;30.194;-97.880;2023-03-01T00:26:59;97693.25;;;29.37;34.63
38880;BME280;25887;30.194;-97.880;2023-03-01T00:29:25;97683.19;;;29.31;34.68
38880;BME280;25887;30.194;-97.880;2023-03-01T00:31:51;97680.97;;;29.26;34.91
38880;BME280;25887;30.194;-97.880;2023-03-01T00:34:35;97678.97;;;29.19;34.98
38880;BME280;25887;30.194;-97.880;2023-03-01T00:37:21;97685.63;;;29.13;35.10
38880;BME280;25887;30.194;-97.880;2023-03-01T00:39:47;97690.63;;;29.06;34.86
38880;BME280;25887;30.194;-97.880;2023-03-01T00:42:12;97691.00;;;29.02;35.33
38880;BME280;25887;30.194;-97.880;2023-03-01T00:44:38;97706.31;;;28.98;35.01
38880;BME280;25887;30.194;-97.880;2023-03-01T00:47:04;97703.06;;;28.95;35.00
38880;BME280;25887;30.194;-97.880;2023-03-01T00:49:30;97695.28;;;28.93;35.10
38880;BME280;25887;30.194;-97.880;2023-03-01T00:51:56;97702.59;;;28.90;35.05
38880;BME280;25887;30.194;-97.880;2023-03-01T00:54:26;97702.16;;;28.84;35.22
38880;BME280;25887;30.194;-97.880;2023-03-01T00:57:11;97713.97;;;28.80;35.61
38880;BME280;25887;30.194;-97.880;2023-03-01T00:59:37;97716.03;;;28.77;35.29
38880;BME280;25887;30.194;-97.880;2023-03-01T01:02:03;97717.38;;;28.71;35.23
38880;BME280;25887;30.194;-97.880;2023-03-01T01:04:29;97728.34;;;28.67;35.36
38880;BME280;25887;30.194;-97.880;2023-03-01T01:07:15;97729.00;;;28.59;35.65
38880;BME280;25887;30.194;-97.880;2023-03-01T01:10:14;97733.94;;;28.52;36.07
38880;BME280;25887;30.194;-97.880;2023-03-01T01:12:43;97734.47;;;28.46;36.07
38880;BME280;25887;30.194;-97.880;2023-03-01T01:15:09;97734.84;;;28.42;36.36
38880;BME280;25887;30.194;-97.880;2023-03-01T01:17:37;97734.38;;;28.37;36.30
38880;BME280;25887;30.194;-97.880;2023-03-01T01:20:03;97738.22;;;28.33;36.21
38880;BME280;25887;30.194;-97.880;2023-03-01T01:22:32;97733.44;;;28.26;36.47
38880;BME280;25887;30.194;-97.880;2023-03-01T01:24:58;97731.31;;;28.20;36.43
38880;BME280;25887;30.194;-97.880;2023-03-01T01:27:35;97732.63;;;28.15;36.39
38880;BME280;25887;30.194;-97.880;2023-03-01T01:36:07;97725.63;;;27.93;37.16
38880;BME280;25887;30.194;-97.880;2023-03-01T01:38:33;97722.53;;;27.88;36.75
38880;BME280;25887;30.194;-97.880;2023-03-01T01:40:59;97724.69;;;27.83;37.10
38880;BME280;25887;30.194;-97.880;2023-03-01T01:43:30;97724.13;;;27.79;37.39
38880;BME280;25887;30.194;-97.880;2023-03-01T01:45:58;97731.56;;;27.74;37.36
38880;BME280;25887;30.194;-97.880;2023-03-01T01:48:28;97726.53;;;27.71;37.21
38880;BME280;25887;30.194;-97.880;2023-03-01T01:51:15;97733.84;;;27.67;37.20
38880;BME280;25887;30.194;-97.880;2023-03-01T01:53:44;97743.88;;;27.62;37.55
38880;BME280;25887;30.194;-97.880;2023-03-01T01:59:18;97739.47;;;27.52;37.97
38880;BME280;25887;30.194;-97.880;2023-03-01T02:01:44;97743.31;;;27.47;38.08
38880;BME280;25887;30.194;-97.880;2023-03-01T02:04:10;97743.69;;;27.43;37.92
38880;BME280;25887;30.194;-97.880;2023-03-01T02:06:41;97743.94;;;27.40;38.17
38880;BME280;25887;30.194;-97.880;2023-03-01T02:09:28;97738.16;;;27.35;38.15
38880;BME280;25887;30.194;-97.880;2023-03-01T02:11:56;97731.44;;;27.31;38.01
38880;BME280;25887;30.194;-97.880;2023-03-01T02:14:23;97748.47;;;27.27;38.59
38880;BME280;25887;30.194;-97.880;2023-03-01T02:16:48;97747.03;;;27.23;38.55
38880;BME280;25887;30.194;-97.880;2023-03-01T02:22:20;97749.31;;;27.16;38.69
38880;BME280;25887;30.194;-97.880;2023-03-01T02:30:19;97768.19;;;26.99;39.33
38880;BME280;25887;30.194;-97.880;2023-03-01T02:32:46;97766.88;;;26.93;39.53
38880;BME280;25887;30.194;-97.880;2023-03-01T02:35:13;97765.28;;;26.90;39.29
38880;BME280;25887;30.194;-97.880;2023-03-01T02:38:17;97764.81;;;26.85;39.74
38880;BME280;25887;30.194;-97.880;2023-03-01T02:40:43;97761.56;;;26.82;39.94
38880;BME280;25887;30.194;-97.880;2023-03-01T02:43:11;97775.00;;;26.79;40.77
38880;BME280;25887;30.194;-97.880;2023-03-01T02:48:55;97781.16;;;26.66;40.84
38880;BME280;25887;30.194;-97.880;2023-03-01T02:54:43;97787.00;;;26.59;41.78
38880;BME280;25887;30.194;-97.880;2023-03-01T02:57:12;97785.66;;;26.53;41.75
38880;BME280;25887;30.194;-97.880;2023-03-01T02:59:38;97782.31;;;26.51;42.01
38880;BME280;25887;30.194;-97.880;2023-03-01T03:02:19;97795.72;;;26.48;42.20
38880;BME280;25887;30.194;-97.880;2023-03-01T03:04:46;97801.94;;;26.47;42.27
38880;BME280;25887;30.194;-97.880;2023-03-01T03:07:12;97797.84;;;26.43;42.67
38880;BME280;25887;30.194;-97.880;2023-03-01T03:09:58;97802.41;;;26.41;42.81
38880;BME280;25887;30.194;-97.880;2023-03-01T03:12:56;97803.47;;;26.38;42.94
38880;BME280;25887;30.194;-97.880;2023-03-01T03:15:22;97798.38;;;26.35;43.37
38880;BME280;25887;30.194;-97.880;2023-03-01T03:17:48;97796.81;;;26.33;43.77
38880;BME280;25887;30.194;-97.880;2023-03-01T03:20:18;97797.03;;;26.30;44.06
38880;BME280;25887;30.194;-97.880;2023-03-01T03:22:48;97812.34;;;26.25;44.50
38880;BME280;25887;30.194;-97.880;2023-03-01T03:25:15;97815.19;;;26.22;44.83
38880;BME280;25887;30.194;-97.880;2023-03-01T03:27:41;97813.75;;;26.18;44.99
38880;BME280;25887;30.194;-97.880;2023-03-01T03:30:10;97811.31;;;26.15;45.27
38880;BME280;25887;30.194;-97.880;2023-03-01T03:32:55;97810.69;;;26.11;45.28
38880;BME280;25887;30.194;-97.880;2023-03-01T03:35:29;97804.84;;;26.07;45.81
38880;BME280;25887;30.194;-97.880;2023-03-01T03:37:58;97803.34;;;26.03;46.17
38880;BME280;25887;30.194;-97.880;2023-03-01T03:40:35;97815.06;;;25.99;46.04
38880;BME280;25887;30.194;-97.880;2023-03-01T03:43:02;97824.84;;;25.97;46.04
38880;BME280;25887;30.194;-97.880;2023-03-01T03:45:28;97833.69;;;25.96;46.27
38880;BME280;25887;30.194;-97.880;2023-03-01T03:47:54;97835.72;;;25.93;46.25
38880;BME280;25887;30.194;-97.880;2023-03-01T03:50:20;97832.34;;;25.91;46.33
38880;BME280;25887;30.194;-97.880;2023-03-01T03:52:46;97831.50;;;25.90;46.48
38880;BME280;25887;30.194;-97.880;2023-03-01T03:55:12;97825.50;;;25.88;46.35
38880;BME280;25887;30.194;-97.880;2023-03-01T03:57:40;97826.56;;;25.86;46.25
38880;BME280;25887;30.194;-97.880;2023-03-01T04:00:07;97831.84;;;25.86;46.42
38880;BME280;25887;30.194;-97.880;2023-03-01T04:02:41;97832.88;;;25.83;46.30
38880;BME280;25887;30.194;-97.880;2023-03-01T04:05:09;97840.03;;;25.81;46.21
38880;BME280;25887;30.194;-97.880;2023-03-01T04:07:49;97843.63;;;25.80;46.38
38880;BME280;25887;30.194;-97.880;2023-03-01T04:10:29;97832.38;;;25.78;46.22
38880;BME280;25887;30.194;-97.880;2023-03-01T04:12:56;97829.09;;;25.74;46.45
38880;BME280;25887;30.194;-97.880;2023-03-01T04:15:23;97829.22;;;25.73;46.58
38880;BME280;25887;30.194;-97.880;2023-03-01T04:17:50;97826.78;;;25.70;46.89
38880;BME280;25887;30.194;-97.880;2023-03-01T04:20:21;97826.91;;;25.68;46.84
38880;BME280;25887;30.194;-97.880;2023-03-01T04:23:10;97839.41;;;25.65;46.79
38880;BME280;25887;30.194;-97.880;2023-03-01T04:25:49;97848.25;;;25.64;46.86
38880;BME280;25887;30.194;-97.880;2023-03-01T04:28:20;97839.84;;;25.59;46.57
38880;BME280;25887;30.194;-97.880;2023-03-01T04:31:05;97846.03;;;25.58;46.99
38880;BME280;25887;30.194;-97.880;2023-03-01T04:33:42;97845.44;;;25.54;47.14
38880;BME280;25887;30.194;-97.880;2023-03-01T04:36:11;97847.31;;;25.52;47.09
38880;BME280;25887;30.194;-97.880;2023-03-01T04:38:46;97841.31;;;25.50;46.97
38880;BME280;25887;30.194;-97.880;2023-03-01T04:41:13;97836.16;;;25.48;46.74
38880;BME280;25887;30.194;-97.880;2023-03-01T04:43:39;97842.38;;;25.47;46.70
38880;BME280;25887;30.194;-97.880;2023-03-01T04:46:06;97842.38;;;25.47;46.82
38880;BME280;25887;30.194;-97.880;2023-03-01T04:48:34;97846.78;;;25.47;46.73
38880;BME280;25887;30.194;-97.880;2023-03-01T04:51:00;97844.28;;;25.45;46.93
38880;BME280;25887;30.194;-97.880;2023-03-01T04:53:27;97850.47;;;25.44;47.00
38880;BME280;25887;30.194;-97.880;2023-03-01T04:55:55;97853.31;;;25.41;47.27
38880;BME280;25887;30.194;-97.880;2023-03-01T04:58:22;97843.97;;;25.37;47.29
38880;BME280;25887;30.194;-97.880;2023-03-01T05:00:49;97844.16;;;25.34;47.52
38880;BME280;25887;30.194;-97.880;2023-03-01T05:03:15;97847.00;;;25.31;47.47
38880;BME280;25887;30.194;-97.880;2023-03-01T05:05:44;97852.47;;;25.28;48.00
38880;BME280;25887;30.194;-97.880;2023-03-01T05:08:10;97849.31;;;25.23;48.29
38880;BME280;25887;30.194;-97.880;2023-03-01T05:10:54;97847.81;;;25.19;48.10
38880;BME280;25887;30.194;-97.880;2023-03-01T05:13:20;97853.31;;;25.16;48.58
38880;BME280;25887;30.194;-97.880;2023-03-01T05:15:47;97850.88;;;25.13;48.98
38880;BME280;25887;30.194;-97.880;2023-03-01T05:18:14;97851.09;;;25.10;48.93
38880;BME280;25887;30.194;-97.880;2023-03-01T05:20:40;97842.47;;;25.08;48.76
38880;BME280;25887;30.194;-97.880;2023-03-01T05:23:24;97846.97;;;25.06;48.78
38880;BME280;25887;30.194;-97.880;2023-03-01T05:25:49;97843.59;;;25.04;49.08
38880;BME280;25887;30.194;-97.880;2023-03-01T05:28:18;97847.16;;;25.02;48.75
38880;BME280;25887;30.194;-97.880;2023-03-01T05:30:44;97841.16;;;25.00;49.33
38880;BME280;25887;30.194;-97.880;2023-03-01T05:33:14;97845.69;;;24.98;49.47
38880;BME280;25887;30.194;-97.880;2023-03-01T05:35:40;97846.72;;;24.96;49.82
38880;BME280;25887;30.194;-97.880;2023-03-01T05:38:07;97846.09;;;24.92;50.21
38880;BME280;25887;30.194;-97.880;2023-03-01T05:40:51;97839.22;;;24.90;50.17
38880;BME280;25887;30.194;-97.880;2023-03-01T05:43:17;97847.22;;;24.88;50.04
38880;BME280;25887;30.194;-97.880;2023-03-01T05:45:43;97840.41;;;24.86;50.03
38880;BME280;25887;30.194;-97.880;2023-03-01T05:48:29;97840.50;;;24.84;50.69
38880;BME280;25887;30.194;-97.880;2023-03-01T05:50:59;97850.25;;;24.82;50.58
38880;BME280;25887;30.194;-97.880;2023-03-01T05:53:25;97853.81;;;24.81;50.64
38880;BME280;25887;30.194;-97.880;2023-03-01T05:55:51;97855.72;;;24.79;50.46
38880;BME280;25887;30.194;-97.880;2023-03-01T05:58:18;97860.13;;;24.79;50.34
38880;BME280;25887;30.194;-97.880;2023-03-01T06:00:45;97841.84;;;24.77;50.64
38880;BME280;25887;30.194;-97.880;2023-03-01T06:03:12;97842.81;;;24.76;50.70
38880;BME280;25887;30.194;-97.880;2023-03-01T06:05:58;97843.75;;;24.75;50.38
38880;BME280;25887;30.194;-97.880;2023-03-01T06:08:24;97840.16;;;24.76;50.54
38880;BME280;25887;30.194;-97.880;2023-03-01T06:11:10;97835.75;;;24.77;50.27
38880;BME280;25887;30.194;-97.880;2023-03-01T06:14:20;97831.34;;;24.77;50.12
38880;BME280;25887;30.194;-97.880;2023-03-01T06:17:15;97842.69;;;24.78;50.63
38880;BME280;25887;30.194;-97.880;2023-03-01T06:19:41;97844.47;;;24.77;50.29
38880;BME280;25887;30.194;-97.880;2023-03-01T06:22:07;97841.84;;;24.77;50.23
38880;BME280;25887;30.194;-97.880;2023-03-01T06:24:33;97837.44;;;24.78;50.21
38880;BME280;25887;30.194;-97.880;2023-03-01T06:26:59;97830.41;;;24.78;50.53
38880;BME280;25887;30.194;-97.880;2023-03-01T06:29:25;97820.84;;;24.77;50.25
38880;BME280;25887;30.194;-97.880;2023-03-01T06:31:51;97824.31;;;24.78;50.51
38880;BME280;25887;30.194;-97.880;2023-03-01T06:34:17;97831.34;;;24.77;50.52
38880;BME280;25887;30.194;-97.880;2023-03-01T06:36:42;97820.84;;;24.77;50.37
38880;BME280;25887;30.194;-97.880;2023-03-01T06:39:08;97823.47;;;24.77;50.50
38880;BME280;25887;30.194;-97.880;2023-03-01T06:41:34;97824.41;;;24.76;50.45
38880;BME280;25887;30.194;-97.880;2023-03-01T06:44:00;97815.59;;;24.77;50.14
38880;BME280;25887;30.194;-97.880;2023-03-01T06:49:25;97826.09;;;24.77;50.49
38880;BME280;25887;30.194;-97.880;2023-03-01T06:51:51;97818.31;;;24.76;50.96
38880;BME280;25887;30.194;-97.880;2023-03-01T06:54:17;97829.84;;;24.73;50.90
38880;BME280;25887;30.194;-97.880;2023-03-01T06:56:51;97831.75;;;24.71;51.16
38880;BME280;25887;30.194;-97.880;2023-03-01T06:59:17;97828.28;;;24.70;50.69
38880;BME280;25887;30.194;-97.880;2023-03-01T07:01:43;97829.22;;;24.69;51.02
38880;BME280;25887;30.194;-97.880;2023-03-01T07:04:09;97837.09;;;24.69;50.50
38880;BME280;25887;30.194;-97.880;2023-03-01T07:06:35;97833.53;;;24.70;50.74
38880;BME280;25887;30.194;-97.880;2023-03-01T07:14:56;97835.22;;;24.71;50.64
38880;BME280;25887;30.194;-97.880;2023-03-01T07:17:22;97839.63;;;24.71;50.65
38880;BME280;25887;30.194;-97.880;2023-03-01T07:19:47;97841.53;;;24.69;50.75
38880;BME280;25887;30.194;-97.880;2023-03-01T07:22:13;97845.81;;;24.70;50.50
38880;BME280;25887;30.194;-97.880;2023-03-01T07:24:40;97834.47;;;24.69;50.60
38880;BME280;25887;30.194;-97.880;2023-03-01T07:27:06;97834.47;;;24.69;50.70
38880;BME280;25887;30.194;-97.880;2023-03-01T07:29:32;97826.50;;;24.71;50.41
38880;BME280;25887;30.194;-97.880;2023-03-01T07:31:58;97836.06;;;24.72;50.66
38880;BME280;25887;30.194;-97.880;2023-03-01T07:34:23;97822.91;;;24.72;50.58
38880;BME280;25887;30.194;-97.880;2023-03-01T07:36:49;97815.03;;;24.72;50.44
38880;BME280;25887;30.194;-97.880;2023-03-01T07:39:15;97795.69;;;24.73;50.69
38880;BME280;25887;30.194;-97.880;2023-03-01T07:41:41;97817.78;;;24.70;50.81
38880;BME280;25887;30.194;-97.880;2023-03-01T07:44:07;97813.34;;;24.71;50.69
38880;BME280;25887;30.194;-97.880;2023-03-01T07:46:33;97837.00;;;24.71;50.79
38880;BME280;25887;30.194;-97.880;2023-03-01T07:48:58;97801.06;;;24.71;50.41
38880;BME280;25887;30.194;-97.880;2023-03-01T07:51:24;97815.97;;;24.71;50.46
38880;BME280;25887;30.194;-97.880;2023-03-01T07:53:50;97767.84;;;24.70;50.70
38880;BME280;25887;30.194;-97.880;2023-03-01T07:56:16;97773.09;;;24.70;50.84
38880;BME280;25887;30.194;-97.880;2023-03-01T07:58:43;97777.53;;;24.70;50.71
38880;BME280;25887;30.194;-97.880;2023-03-01T08:01:10;97784.47;;;24.71;50.61
38880;BME280;25887;30.194;-97.880;2023-03-01T08:03:37;97785.28;;;24.71;50.71
38880;BME280;25887;30.194;-97.880;2023-03-01T08:06:10;97799.28;;;24.72;50.40
38880;BME280;25887;30.194;-97.880;2023-03-01T08:08:38;97816.72;;;24.73;50.40
38880;BME280;25887;30.194;-97.880;2023-03-01T08:11:05;97809.66;;;24.73;50.48
38880;BME280;25887;30.194;-97.880;2023-03-01T08:13:32;97788.66;;;24.73;50.76
38880;BME280;25887;30.194;-97.880;2023-03-01T08:16:26;97786.13;;;24.72;50.81
38880;BME280;25887;30.194;-97.880;2023-03-01T08:18:52;97769.66;;;24.70;50.98
38880;BME280;25887;30.194;-97.880;2023-03-01T08:21:19;97769.00;;;24.66;51.07
38880;BME280;25887;30.194;-97.880;2023-03-01T08:24:04;97761.31;;;24.63;51.19
38880;BME280;25887;30.194;-97.880;2023-03-01T08:26:31;97782.44;;;24.62;50.85
38880;BME280;25887;30.194;-97.880;2023-03-01T08:28:57;97787.81;;;24.60;51.06
38880;BME280;25887;30.194;-97.880;2023-03-01T08:31:28;97798.31;;;24.60;50.97
38880;BME280;25887;30.194;-97.880;2023-03-01T08:33:55;97783.59;;;24.58;51.18
38880;BME280;25887;30.194;-97.880;2023-03-01T08:36:21;97776.47;;;24.60;50.95
38880;BME280;25887;30.194;-97.880;2023-03-01T08:38:47;97759.88;;;24.59;51.33
38880;BME280;25887;30.194;-97.880;2023-03-01T08:41:13;97759.00;;;24.59;51.25
38880;BME280;25887;30.194;-97.880;2023-03-01T08:43:41;97729.38;;;24.57;51.23
38880;BME280;25887;30.194;-97.880;2023-03-01T08:46:06;97738.19;;;24.56;51.03
38880;BME280;25887;30.194;-97.880;2023-03-01T08:48:32;97745.25;;;24.55;50.86
38880;BME280;25887;30.194;-97.880;2023-03-01T08:51:11;97718.97;;;24.55;51.22
38880;BME280;25887;30.194;-97.880;2023-03-01T08:53:52;97718.97;;;24.55;51.13
38880;BME280;25887;30.194;-97.880;2023-03-01T08:56:18;97688.41;;;24.54;51.08
38880;BME280;25887;30.194;-97.880;2023-03-01T08:59:04;97705.13;;;24.53;51.33
38880;BME280;25887;30.194;-97.880;2023-03-01T09:01:30;97718.25;;;24.53;51.16
38880;BME280;25887;30.194;-97.880;2023-03-01T09:03:56;97743.66;;;24.53;51.24
38880;BME280;25887;30.194;-97.880;2023-03-01T09:06:22;97805.75;;;24.54;51.15
38880;BME280;25887;30.194;-97.880;2023-03-01T09:08:48;97728.75;;;24.53;51.43
38880;BME280;25887;30.194;-97.880;2023-03-01T09:11:16;97724.44;;;24.52;51.85
38880;BME280;25887;30.194;-97.880;2023-03-01T09:13:43;97694.91;;;24.49;52.45
38880;BME280;25887;30.194;-97.880;2023-03-01T09:16:10;97716.88;;;24.48;52.20
38880;BME280;25887;30.194;-97.880;2023-03-01T09:18:36;97765.09;;;24.47;51.76
38880;BME280;25887;30.194;-97.880;2023-03-01T09:21:03;97731.88;;;24.45;51.71
38880;BME280;25887;30.194;-97.880;2023-03-01T09:23:33;97728.31;;;24.47;51.68
38880;BME280;25887;30.194;-97.880;2023-03-01T09:25:59;97738.72;;;24.48;51.75
38880;BME280;25887;30.194;-97.880;2023-03-01T09:28:43;97728.00;;;24.51;51.89
38880;BME280;25887;30.194;-97.880;2023-03-01T09:31:12;97733.16;;;24.53;51.50
38880;BME280;25887;30.194;-97.880;2023-03-01T09:33:38;97716.34;;;24.55;51.77
38880;BME280;25887;30.194;-97.880;2023-03-01T09:36:05;97677.78;;;24.56;51.59
38880;BME280;25887;30.194;-97.880;2023-03-01T09:38:34;97658.56;;;24.55;51.56
38880;BME280;25887;30.194;-97.880;2023-03-01T09:41:00;97645.56;;;24.54;51.84
38880;BME280;25887;30.194;-97.880;2023-03-01T09:43:48;97618.63;;;24.50;52.29
38880;BME280;25887;30.194;-97.880;2023-03-01T09:46:19;97632.94;;;24.46;52.62
38880;BME280;25887;30.194;-97.880;2023-03-01T09:48:48;97641.84;;;24.43;53.18
38880;BME280;25887;30.194;-97.880;2023-03-01T09:51:37;97649.09;;;24.40;53.40
38880;BME280;25887;30.194;-97.880;2023-03-01T09:54:08;97665.06;;;24.37;53.40
38880;BME280;25887;30.194;-97.880;2023-03-01T09:59:36;97687.22;;;24.33;53.40
38880;BME280;25887;30.194;-97.880;2023-03-01T10:02:15;97696.88;;;24.32;53.84
38880;BME280;25887;30.194;-97.880;2023-03-01T10:04:48;97731.00;;;24.32;53.41
38880;BME280;25887;30.194;-97.880;2023-03-01T10:09:59;97749.38;;;24.32;53.51
38880;BME280;25887;30.194;-97.880;2023-03-01T10:12:27;97731.00;;;24.32;53.56
38880;BME280;25887;30.194;-97.880;2023-03-01T10:15:04;97719.56;;;24.33;54.15
38880;BME280;25887;30.194;-97.880;2023-03-01T10:20:33;97762.69;;;24.29;54.35
38880;BME280;25887;30.194;-97.880;2023-03-01T10:23:01;97768.78;;;24.30;54.21
38880;BME280;25887;30.194;-97.880;2023-03-01T10:25:32;97770.56;;;24.29;53.57
38880;BME280;25887;30.194;-97.880;2023-03-01T10:28:04;97788.75;;;24.32;53.71
38880;BME280;25887;30.194;-97.880;2023-03-01T10:30:38;97781.56;;;24.36;53.56
38880;BME280;25887;30.194;-97.880;2023-03-01T10:33:13;97813.78;;;24.38;53.63
38880;BME280;25887;30.194;-97.880;2023-03-01T10:35:41;97804.03;;;24.40;53.62
38880;BME280;25887;30.194;-97.880;2023-03-01T10:38:10;97781.22;;;24.40;53.91
38880;BME280;25887;30.194;-97.880;2023-03-01T10:41:00;97776.94;;;24.39;53.62
38880;BME280;25887;30.194;-97.880;2023-03-01T10:43:42;97775.97;;;24.40;53.41
38880;BME280;25887;30.194;-97.880;2023-03-01T10:49:17;97799.50;;;24.42;53.40
38880;BME280;25887;30.194;-97.880;2023-03-01T10:51:44;97779.34;;;24.42;53.43
38880;BME280;25887;30.194;-97.880;2023-03-01T10:54:30;97778.38;;;24.43;53.34
38880;BME280;25887;30.194;-97.880;2023-03-01T10:56:57;97726.81;;;24.42;53.44
38880;BME280;25887;30.194;-97.880;2023-03-01T10:59:27;97736.47;;;24.42;53.74
38880;BME280;25887;30.194;-97.880;2023-03-01T11:04:29;97749.72;;;24.40;53.60
38880;BME280;25887;30.194;-97.880;2023-03-01T11:06:59;97712.22;;;24.38;54.06
38880;BME280;25887;30.194;-97.880;2023-03-01T11:09:29;97704.53;;;24.35;55.66
38880;BME280;25887;30.194;-97.880;2023-03-01T11:11:59;97733.81;;;24.29;56.23
38880;BME280;25887;30.194;-97.880;2023-03-01T11:14:35;97743.75;;;24.24;56.19
38880;BME280;25887;30.194;-97.880;2023-03-01T11:17:03;97770.22;;;24.21;55.76
38880;BME280;25887;30.194;-97.880;2023-03-01T11:19:41;97735.34;;;24.19;56.10
38880;BME280;25887;30.194;-97.880;2023-03-01T11:22:10;97726.72;;;24.17;56.07
38880;BME280;25887;30.194;-97.880;2023-03-01T11:24:41;97684.84;;;24.15;56.11
38880;BME280;25887;30.194;-97.880;2023-03-01T11:30:12;97674.44;;;24.14;56.28
38880;BME280;25887;30.194;-97.880;2023-03-01T11:35:27;97594.44;;;24.07;56.45
38880;BME280;25887;30.194;-97.880;2023-03-01T11:37:59;97592.84;;;24.04;56.77
38880;BME280;25887;30.194;-97.880;2023-03-01T11:45:25;97556.72;;;23.95;57.36
38880;BME280;25887;30.194;-97.880;2023-03-01T11:50:28;97597.16;;;23.93;57.72
38880;BME280;25887;30.194;-97.880;2023-03-01T12:06:38;97659.66;;;23.86;57.80
38880;BME280;25887;30.194;-97.880;2023-03-01T12:22:49;97627.78;;;23.92;57.30
38880;BME280;25887;30.194;-97.880;2023-03-01T12:25:22;97621.59;;;23.93;57.12
38880;BME280;25887;30.194;-97.880;2023-03-01T12:30:27;97634.59;;;23.95;56.88
38880;BME280;25887;30.194;-97.880;2023-03-01T12:35:36;97645.00;;;23.96;56.95
38880;BME280;25887;30.194;-97.880;2023-03-01T12:38:08;97648.47;;;23.97;57.20
38880;BME280;25887;30.194;-97.880;2023-03-01T12:43:38;97627.38;;;23.98;57.04
38880;BME280;25887;30.194;-97.880;2023-03-01T12:46:20;97622.97;;;23.99;56.90
38880;BME280;25887;30.194;-97.880;2023-03-01T12:51:14;97622.97;;;23.99;57.64
38880;BME280;25887;30.194;-97.880;2023-03-01T12:53:44;97609.88;;;23.99;57.47
38880;BME280;25887;30.194;-97.880;2023-03-01T12:56:16;97618.56;;;23.99;57.30
38880;BME280;25887;30.194;-97.880;2023-03-01T13:11:41;97704.94;;;24.02;57.17
38880;BME280;25887;30.194;-97.880;2023-03-01T13:16:50;97703.72;;;24.08;56.90
38880;BME280;25887;30.194;-97.880;2023-03-01T13:19:23;97704.44;;;24.10;57.23
38880;BME280;25887;30.194;-97.880;2023-03-01T13:21:51;97702.56;;;24.12;56.66
38880;BME280;25887;30.194;-97.880;2023-03-01T13:29:48;97702.16;;;24.18;56.82
38880;BME280;25887;30.194;-97.880;2023-03-01T13:32:24;97696.91;;;24.18;56.72
38880;BME280;25887;30.194;-97.880;2023-03-01T13:34:54;97699.53;;;24.18;57.18
38880;BME280;25887;30.194;-97.880;2023-03-01T13:37:30;97696.91;;;24.18;57.07
38880;BME280;25887;30.194;-97.880;2023-03-01T13:39:57;97697.75;;;24.18;57.40
38880;BME280;25887;30.194;-97.880;2023-03-01T13:42:40;97696.72;;;24.21;56.92
38880;BME280;25887;30.194;-97.880;2023-03-01T13:47:45;97726.34;;;24.23;56.70
38880;BME280;25887;30.194;-97.880;2023-03-01T13:50:20;97734.94;;;24.25;57.00
38880;BME280;25887;30.194;-97.880;2023-03-01T13:52:54;97729.59;;;24.27;56.99
38880;BME280;25887;30.194;-97.880;2023-03-01T13:55:24;97733.06;;;24.27;56.77
38880;BME280;25887;30.194;-97.880;2023-03-01T13:57:53;97729.50;;;24.28;56.72
38880;BME280;25887;30.194;-97.880;2023-03-01T14:05:27;97723.13;;;24.32;56.71
38880;BME280;25887;30.194;-97.880;2023-03-01T14:07:54;97716.00;;;24.34;56.88
38880;BME280;25887;30.194;-97.880;2023-03-01T14:10:20;97724.69;;;24.35;56.65
38880;BME280;25887;30.194;-97.880;2023-03-01T14:18:29;97739.44;;;24.37;56.58
38880;BME280;25887;30.194;-97.880;2023-03-01T14:21:01;97733.13;;;24.40;56.54
38880;BME280;25887;30.194;-97.880;2023-03-01T14:23:32;97747.09;;;24.40;56.75
38880;BME280;25887;30.194;-97.880;2023-03-01T14:26:00;97747.81;;;24.42;56.84
38880;BME280;25887;30.194;-97.880;2023-03-01T14:28:44;97754.75;;;24.43;56.91
38880;BME280;25887;30.194;-97.880;2023-03-01T14:31:30;97753.84;;;24.44;56.74
38880;BME280;25887;30.194;-97.880;2023-03-01T14:33:57;97745.03;;;24.45;56.75
38880;BME280;25887;30.194;-97.880;2023-03-01T14:36:27;97744.06;;;24.47;56.63
38880;BME280;25887;30.194;-97.880;2023-03-01T14:38:53;97742.19;;;24.49;56.56
38880;BME280;25887;30.194;-97.880;2023-03-01T14:41:25;97747.31;;;24.50;56.73
38880;BME280;25887;30.194;-97.880;2023-03-01T14:46:21;97760.16;;;24.55;56.37
38880;BME280;25887;30.194;-97.880;2023-03-01T14:49:14;97757.44;;;24.56;56.85
38880;BME280;25887;30.194;-97.880;2023-03-01T14:52:00;97764.25;;;24.59;56.64
38880;BME280;25887;30.194;-97.880;2023-03-01T14:57:28;97767.53;;;24.62;56.39
38880;BME280;25887;30.194;-97.880;2023-03-01T14:59:55;97775.19;;;24.65;56.62
38880;BME280;25887;30.194;-97.880;2023-03-01T15:02:23;97772.50;;;24.67;56.41
38880;BME280;25887;30.194;-97.880;2023-03-01T15:04:50;97778.38;;;24.70;56.46
38880;BME280;25887;30.194;-97.880;2023-03-01T15:07:17;97776.47;;;24.72;56.57
38880;BME280;25887;30.194;-97.880;2023-03-01T15:09:43;97777.31;;;24.73;56.54
38880;BME280;25887;30.194;-97.880;2023-03-01T15:14:54;97763.03;;;24.77;56.56
38880;BME280;25887;30.194;-97.880;2023-03-01T15:17:29;97765.44;;;24.80;56.50
38880;BME280;25887;30.194;-97.880;2023-03-01T15:19:56;97757.56;;;24.80;56.64
38880;BME280;25887;30.194;-97.880;2023-03-01T15:22:22;97751.28;;;24.83;56.79